AQQ10 IFIS: Internet Flight Information System
logo dgac
Lunes 20 de Septiembre del 2021
Buscar por aerodromo o helipuerto
Ingrese nombre de aeródromo, localidad o designador OACI:
METAR del 20-09-2021 a las 11:00 UTC
Para mayor información visite www.meteochile.cl
METAR SCFA 201100Z 22006KT 9999 OVC019 13/10 Q1016 NOSIG
Viento: dirección 220 grados, velocidad 6 nudos
Visibilidad: 10 km o más
Nubes: Cubierto a 1900 pies sobre el nivel del aeródromo
Temperatura: 13 °C
Rocío: 10 °C
Humedad_relativa: 82%
Presión: 1016 hPa
No se esperan cambios significativos en las próximas 2 horas
METAR del 20-09-2021 a las 10:00 UTC
Para mayor información visite www.meteochile.cl
METAR SCFA 201000Z 23005KT 9999 OVC017 13/10 Q1016 NOSIG
Viento: dirección 230 grados, velocidad 5 nudos
Visibilidad: 10 km o más
Nubes: Cubierto a 1700 pies sobre el nivel del aeródromo
Temperatura: 13 °C
Rocío: 10 °C
Humedad_relativa: 82%
Presión: 1016 hPa
No se esperan cambios significativos en las próximas 2 horas
METAR del 20-09-2021 a las 09:00 UTC
Para mayor información visite www.meteochile.cl
METAR SCFA 200900Z 21007KT 9999 OVC015 13/10 Q1015 NOSIG
Viento: dirección 210 grados, velocidad 7 nudos
Visibilidad: 10 km o más
Nubes: Cubierto a 1500 pies sobre el nivel del aeródromo
Temperatura: 13 °C
Rocío: 10 °C
Humedad_relativa: 82%
Presión: 1015 hPa
No se esperan cambios significativos en las próximas 2 horas
METAR del 20-09-2021 a las 08:00 UTC
Para mayor información visite www.meteochile.cl
METAR SCFA 200800Z 21006KT 9999 OVC020 13/10 Q1016 NOSIG
Viento: dirección 210 grados, velocidad 6 nudos
Visibilidad: 10 km o más
Nubes: Cubierto a 2000 pies sobre el nivel del aeródromo
Temperatura: 13 °C
Rocío: 10 °C
Humedad_relativa: 82%
Presión: 1016 hPa
No se esperan cambios significativos en las próximas 2 horas
METAR del 20-09-2021 a las 07:00 UTC
Para mayor información visite www.meteochile.cl
METAR SCFA 200700Z 21005KT 9999 OVC018 13/10 Q1016 NOSIG
Viento: dirección 210 grados, velocidad 5 nudos
Visibilidad: 10 km o más
Nubes: Cubierto a 1800 pies sobre el nivel del aeródromo
Temperatura: 13 °C
Rocío: 10 °C
Humedad_relativa: 82%
Presión: 1016 hPa
No se esperan cambios significativos en las próximas 2 horas
METAR del 20-09-2021 a las 06:00 UTC
Para mayor información visite www.meteochile.cl
METAR SCFA 200600Z 21006KT 9999 OVC021 13/10 Q1016 NOSIG
Viento: dirección 210 grados, velocidad 6 nudos
Visibilidad: 10 km o más
Nubes: Cubierto a 2100 pies sobre el nivel del aeródromo
Temperatura: 13 °C
Rocío: 10 °C
Humedad_relativa: 82%
Presión: 1016 hPa
No se esperan cambios significativos en las próximas 2 horas
METAR del 20-09-2021 a las 05:00 UTC
Para mayor información visite www.meteochile.cl
METAR SCFA 200500Z 22006KT 9999 OVC021 13/10 Q1017 NOSIG
Viento: dirección 220 grados, velocidad 6 nudos
Visibilidad: 10 km o más
Nubes: Cubierto a 2100 pies sobre el nivel del aeródromo
Temperatura: 13 °C
Rocío: 10 °C
Humedad_relativa: 82%
Presión: 1017 hPa
No se esperan cambios significativos en las próximas 2 horas
METAR del 20-09-2021 a las 04:00 UTC
Para mayor información visite www.meteochile.cl
METAR SCFA 200400Z 22009KT 9999 OVC020 13/09 Q1017 NOSIG
Viento: dirección 220 grados, velocidad 9 nudos
Visibilidad: 10 km o más
Nubes: Cubierto a 2000 pies sobre el nivel del aeródromo
Temperatura: 13 °C
Rocío: 9 °C
Humedad_relativa: 77%
Presión: 1017 hPa
No se esperan cambios significativos en las próximas 2 horas
METAR del 20-09-2021 a las 03:00 UTC
Para mayor información visite www.meteochile.cl
METAR SCFA 200300Z 21010KT 9999 OVC018 13/10 Q1017 NOSIG
Viento: dirección 210 grados, velocidad 10 nudos
Visibilidad: 10 km o más
Nubes: Cubierto a 1800 pies sobre el nivel del aeródromo
Temperatura: 13 °C
Rocío: 10 °C
Humedad_relativa: 82%
Presión: 1017 hPa
No se esperan cambios significativos en las próximas 2 horas
METAR del 20-09-2021 a las 02:00 UTC
Para mayor información visite www.meteochile.cl
METAR SCFA 200200Z 20011KT 9999 OVC018 13/10 Q1017 NOSIG
Viento: dirección 200 grados, velocidad 11 nudos
Visibilidad: 10 km o más
Nubes: Cubierto a 1800 pies sobre el nivel del aeródromo
Temperatura: 13 °C
Rocío: 10 °C
Humedad_relativa: 82%
Presión: 1017 hPa
No se esperan cambios significativos en las próximas 2 horas